sensor_id;sensor_type;location;lat;lon;timestamp;temperature;humidity
17489;DHT22;8861;52.644;4.734;2022-10-03T00:02:08;11.60;99.90
17489;DHT22;8861;52.644;4.734;2022-10-03T00:05:02;11.60;99.90
17489;DHT22;8861;52.644;4.734;2022-10-03T00:07:51;11.60;99.90
17489;DHT22;8861;52.644;4.734;2022-10-03T00:10:29;11.60;99.90
17489;DHT22;8861;52.644;4.734;2022-10-03T00:13:09;11.60;99.90
17489;DHT22;8861;52.644;4.734;2022-10-03T00:15:43;11.50;99.90
17489;DHT22;8861;52.644;4.734;2022-10-03T00:18:23;11.50;99.90
17489;DHT22;8861;52.644;4.734;2022-10-03T00:21:02;11.50;99.90
17489;DHT22;8861;52.644;4.734;2022-10-03T00:23:39;11.50;99.90
17489;DHT22;8861;52.644;4.734;2022-10-03T00:26:15;11.50;99.90
17489;DHT22;8861;52.644;4.734;2022-10-03T00:29:16;11.40;99.90
17489;DHT22;8861;52.644;4.734;2022-10-03T00:31:53;11.40;99.90
17489;DHT22;8861;52.644;4.734;2022-10-03T00:34:29;11.40;99.90
17489;DHT22;8861;52.644;4.734;2022-10-03T00:37:15;11.40;99.90
17489;DHT22;8861;52.644;4.734;2022-10-03T00:43:06;11.30;99.90
17489;DHT22;8861;52.644;4.734;2022-10-03T00:45:54;11.30;99.90
17489;DHT22;8861;52.644;4.734;2022-10-03T00:48:57;11.20;99.90
17489;DHT22;8861;52.644;4.734;2022-10-03T00:51:42;11.20;99.90
17489;DHT22;8861;52.644;4.734;2022-10-03T00:54:25;11.20;99.90
17489;DHT22;8861;52.644;4.734;2022-10-03T00:57:07;11.20;99.90
17489;DHT22;8861;52.644;4.734;2022-10-03T01:00:01;11.10;99.90
17489;DHT22;8861;52.644;4.734;2022-10-03T01:02:45;11.10;99.90
17489;DHT22;8861;52.644;4.734;2022-10-03T01:05:23;11.10;99.90
17489;DHT22;8861;52.644;4.734;2022-10-03T01:08:04;11.00;99.90
17489;DHT22;8861;52.644;4.734;2022-10-03T01:10:39;11.00;99.90
17489;DHT22;8861;52.644;4.734;2022-10-03T01:13:20;11.00;99.90
17489;DHT22;8861;52.644;4.734;2022-10-03T01:15:54;11.00;99.90
17489;DHT22;8861;52.644;4.734;2022-10-03T01:18:34;10.90;99.90
17489;DHT22;8861;52.644;4.734;2022-10-03T01:21:11;10.90;99.90
17489;DHT22;8861;52.644;4.734;2022-10-03T01:24:05;10.90;99.90
17489;DHT22;8861;52.644;4.734;2022-10-03T01:26:57;10.90;99.90
17489;DHT22;8861;52.644;4.734;2022-10-03T01:29:38;10.80;99.90
17489;DHT22;8861;52.644;4.734;2022-10-03T01:32:29;10.80;99.90
17489;DHT22;8861;52.644;4.734;2022-10-03T01:35:06;10.80;99.90
17489;DHT22;8861;52.644;4.734;2022-10-03T01:37:42;10.80;99.90
17489;DHT22;8861;52.644;4.734;2022-10-03T01:40:23;10.80;99.90
17489;DHT22;8861;52.644;4.734;2022-10-03T01:43:02;10.80;99.90
17489;DHT22;8861;52.644;4.734;2022-10-03T01:45:43;10.70;99.90
17489;DHT22;8861;52.644;4.734;2022-10-03T01:48:18;10.70;99.90
17489;DHT22;8861;52.644;4.734;2022-10-03T01:50:52;10.70;99.90
17489;DHT22;8861;52.644;4.734;2022-10-03T01:53:28;10.70;99.90
17489;DHT22;8861;52.644;4.734;2022-10-03T01:56:02;10.70;99.90
17489;DHT22;8861;52.644;4.734;2022-10-03T01:58:41;10.70;99.90
17489;DHT22;8861;52.644;4.734;2022-10-03T02:01:18;10.70;99.90
17489;DHT22;8861;52.644;4.734;2022-10-03T02:03:53;10.70;99.90
17489;DHT22;8861;52.644;4.734;2022-10-03T02:06:26;10.80;99.90
17489;DHT22;8861;52.644;4.734;2022-10-03T02:09:04;10.80;99.90
17489;DHT22;8861;52.644;4.734;2022-10-03T02:11:37;10.80;99.90
17489;DHT22;8861;52.644;4.734;2022-10-03T02:14:14;10.80;99.90
17489;DHT22;8861;52.644;4.734;2022-10-03T02:16:55;10.80;99.90
17489;DHT22;8861;52.644;4.734;2022-10-03T02:19:26;10.80;99.90
17489;DHT22;8861;52.644;4.734;2022-10-03T02:21:57;10.80;99.90
17489;DHT22;8861;52.644;4.734;2022-10-03T02:24:42;10.80;99.90
17489;DHT22;8861;52.644;4.734;2022-10-03T02:27:37;10.80;99.90
17489;DHT22;8861;52.644;4.734;2022-10-03T02:30:17;10.80;99.90
17489;DHT22;8861;52.644;4.734;2022-10-03T02:33:17;10.80;99.90
17489;DHT22;8861;52.644;4.734;2022-10-03T02:42:22;10.80;99.90
17489;DHT22;8861;52.644;4.734;2022-10-03T02:48:37;10.80;99.90
17489;DHT22;8861;52.644;4.734;2022-10-03T02:57:51;11.00;99.90
17489;DHT22;8861;52.644;4.734;2022-10-03T03:00:21;11.00;99.90
17489;DHT22;8861;52.644;4.734;2022-10-03T03:09:31;10.80;99.90
17489;DHT22;8861;52.644;4.734;2022-10-03T03:15:45;10.80;99.90
17489;DHT22;8861;52.644;4.734;2022-10-03T03:18:32;10.80;99.90
17489;DHT22;8861;52.644;4.734;2022-10-03T03:21:14;10.90;99.90
17489;DHT22;8861;52.644;4.734;2022-10-03T03:23:54;10.90;99.90
17489;DHT22;8861;52.644;4.734;2022-10-03T03:26:35;11.00;99.90
17489;DHT22;8861;52.644;4.734;2022-10-03T03:29:13;11.00;99.90
17489;DHT22;8861;52.644;4.734;2022-10-03T03:31:51;11.10;99.90
17489;DHT22;8861;52.644;4.734;2022-10-03T03:34:32;11.20;99.90
17489;DHT22;8861;52.644;4.734;2022-10-03T03:37:07;11.30;99.90
17489;DHT22;8861;52.644;4.734;2022-10-03T03:39:54;11.40;99.90
17489;DHT22;8861;52.644;4.734;2022-10-03T03:42:46;11.40;99.90
17489;DHT22;8861;52.644;4.734;2022-10-03T03:45:28;11.50;99.90
17489;DHT22;8861;52.644;4.734;2022-10-03T03:48:06;11.60;99.90
17489;DHT22;8861;52.644;4.734;2022-10-03T03:50:47;11.60;99.90
17489;DHT22;8861;52.644;4.734;2022-10-03T03:53:49;11.70;99.90
17489;DHT22;8861;52.644;4.734;2022-10-03T03:59:38;11.80;99.90
17489;DHT22;8861;52.644;4.734;2022-10-03T04:02:23;11.80;99.90
17489;DHT22;8861;52.644;4.734;2022-10-03T04:05:08;11.70;99.90
17489;DHT22;8861;52.644;4.734;2022-10-03T04:07:47;11.70;99.90
17489;DHT22;8861;52.644;4.734;2022-10-03T04:10:33;11.60;99.90
17489;DHT22;8861;52.644;4.734;2022-10-03T04:13:19;11.60;99.90
17489;DHT22;8861;52.644;4.734;2022-10-03T04:16:03;11.60;99.90
17489;DHT22;8861;52.644;4.734;2022-10-03T04:18:49;11.60;99.90
17489;DHT22;8861;52.644;4.734;2022-10-03T04:21:39;11.60;99.90
17489;DHT22;8861;52.644;4.734;2022-10-03T04:24:40;11.70;99.90
17489;DHT22;8861;52.644;4.734;2022-10-03T04:27:53;11.70;99.90
17489;DHT22;8861;52.644;4.734;2022-10-03T04:30:35;11.70;99.90
17489;DHT22;8861;52.644;4.734;2022-10-03T04:33:15;11.80;99.90
17489;DHT22;8861;52.644;4.734;2022-10-03T04:36:12;11.80;99.90
17489;DHT22;8861;52.644;4.734;2022-10-03T04:38:49;11.90;99.90
17489;DHT22;8861;52.644;4.734;2022-10-03T04:41:25;11.90;99.90
17489;DHT22;8861;52.644;4.734;2022-10-03T04:44:03;11.90;99.90
17489;DHT22;8861;52.644;4.734;2022-10-03T04:46:41;11.90;99.90
17489;DHT22;8861;52.644;4.734;2022-10-03T04:49:18;12.00;99.90
17489;DHT22;8861;52.644;4.734;2022-10-03T04:51:52;12.00;99.90
17489;DHT22;8861;52.644;4.734;2022-10-03T04:54:28;12.00;99.90
17489;DHT22;8861;52.644;4.734;2022-10-03T04:57:01;12.00;99.90
17489;DHT22;8861;52.644;4.734;2022-10-03T04:59:38;12.10;99.90
17489;DHT22;8861;52.644;4.734;2022-10-03T05:02:16;12.10;99.90
17489;DHT22;8861;52.644;4.734;2022-10-03T05:04:57;12.10;99.90
17489;DHT22;8861;52.644;4.734;2022-10-03T05:07:34;12.10;99.90
17489;DHT22;8861;52.644;4.734;2022-10-03T05:10:22;12.10;99.90
17489;DHT22;8861;52.644;4.734;2022-10-03T05:12:59;12.20;99.90
17489;DHT22;8861;52.644;4.734;2022-10-03T05:15:31;12.20;99.90
17489;DHT22;8861;52.644;4.734;2022-10-03T05:18:03;12.20;99.90
17489;DHT22;8861;52.644;4.734;2022-10-03T05:20:43;12.20;99.90
17489;DHT22;8861;52.644;4.734;2022-10-03T05:23:31;12.20;99.90
17489;DHT22;8861;52.644;4.734;2022-10-03T05:26:06;12.20;99.90
17489;DHT22;8861;52.644;4.734;2022-10-03T05:28:42;12.20;99.90
17489;DHT22;8861;52.644;4.734;2022-10-03T05:31:27;12.20;99.90
17489;DHT22;8861;52.644;4.734;2022-10-03T05:34:03;12.20;99.90
17489;DHT22;8861;52.644;4.734;2022-10-03T05:36:55;12.20;99.90
17489;DHT22;8861;52.644;4.734;2022-10-03T05:39:28;12.20;99.90
17489;DHT22;8861;52.644;4.734;2022-10-03T05:42:18;12.20;99.90
17489;DHT22;8861;52.644;4.734;2022-10-03T05:45:00;12.20;99.90
17489;DHT22;8861;52.644;4.734;2022-10-03T05:47:31;12.30;99.90
17489;DHT22;8861;52.644;4.734;2022-10-03T05:50:33;12.30;99.90
17489;DHT22;8861;52.644;4.734;2022-10-03T05:56:06;12.40;99.90
17489;DHT22;8861;52.644;4.734;2022-10-03T05:58:56;12.40;99.90
17489;DHT22;8861;52.644;4.734;2022-10-03T06:05:14;12.50;99.90
17489;DHT22;8861;52.644;4.734;2022-10-03T06:08:11;12.50;99.90
17489;DHT22;8861;52.644;4.734;2022-10-03T06:10:49;12.60;99.90
17489;DHT22;8861;52.644;4.734;2022-10-03T06:13:30;12.60;99.90
17489;DHT22;8861;52.644;4.734;2022-10-03T06:16:12;12.70;99.90
17489;DHT22;8861;52.644;4.734;2022-10-03T06:19:18;12.70;99.90
17489;DHT22;8861;52.644;4.734;2022-10-03T06:22:33;12.70;99.90
17489;DHT22;8861;52.644;4.734;2022-10-03T06:28:42;12.90;99.90
17489;DHT22;8861;52.644;4.734;2022-10-03T06:31:49;12.90;99.90
17489;DHT22;8861;52.644;4.734;2022-10-03T06:34:48;13.00;99.90
17489;DHT22;8861;52.644;4.734;2022-10-03T06:44:07;13.10;99.90
17489;DHT22;8861;52.644;4.734;2022-10-03T06:47:02;13.20;99.90
17489;DHT22;8861;52.644;4.734;2022-10-03T06:49:48;13.30;99.90
17489;DHT22;8861;52.644;4.734;2022-10-03T06:52:44;13.30;99.90
17489;DHT22;8861;52.644;4.734;2022-10-03T07:05:01;13.60;99.90
17489;DHT22;8861;52.644;4.734;2022-10-03T07:10:51;13.60;99.90
17489;DHT22;8861;52.644;4.734;2022-10-03T07:16:48;13.60;99.90
17489;DHT22;8861;52.644;4.734;2022-10-03T07:19:56;13.70;99.90
17489;DHT22;8861;52.644;4.734;2022-10-03T07:22:51;13.90;99.90
17489;DHT22;8861;52.644;4.734;2022-10-03T07:25:48;14.00;99.90
17489;DHT22;8861;52.644;4.734;2022-10-03T07:28:34;14.20;99.90
17489;DHT22;8861;52.644;4.734;2022-10-03T07:31:10;14.30;99.90
17489;DHT22;8861;52.644;4.734;2022-10-03T07:34:05;14.40;99.90
17489;DHT22;8861;52.644;4.734;2022-10-03T07:37:01;14.40;99.90
17489;DHT22;8861;52.644;4.734;2022-10-03T07:40:42;14.30;99.90
17489;DHT22;8861;52.644;4.734;2022-10-03T07:43:47;14.20;99.90
17489;DHT22;8861;52.644;4.734;2022-10-03T07:46:56;14.10;99.90
17489;DHT22;8861;52.644;4.734;2022-10-03T07:50:00;14.00;99.90
17489;DHT22;8861;52.644;4.734;2022-10-03T07:52:57;14.00;99.90
17489;DHT22;8861;52.644;4.734;2022-10-03T07:55:36;14.10;99.90
17489;DHT22;8861;52.644;4.734;2022-10-03T08:01:28;14.30;99.90
17489;DHT22;8861;52.644;4.734;2022-10-03T08:07:19;14.60;99.90
17489;DHT22;8861;52.644;4.734;2022-10-03T08:10:13;14.60;99.90
17489;DHT22;8861;52.644;4.734;2022-10-03T08:12:59;14.70;99.90
17489;DHT22;8861;52.644;4.734;2022-10-03T08:15:43;14.70;99.90
17489;DHT22;8861;52.644;4.734;2022-10-03T08:18:49;14.80;99.90
17489;DHT22;8861;52.644;4.734;2022-10-03T08:21:28;14.90;99.90
17489;DHT22;8861;52.644;4.734;2022-10-03T08:24:15;15.00;99.90
17489;DHT22;8861;52.644;4.734;2022-10-03T08:27:06;15.10;99.90
17489;DHT22;8861;52.644;4.734;2022-10-03T08:30:11;15.10;99.90
17489;DHT22;8861;52.644;4.734;2022-10-03T08:33:07;15.20;99.90
17489;DHT22;8861;52.644;4.734;2022-10-03T08:38:56;15.60;99.90
17489;DHT22;8861;52.644;4.734;2022-10-03T08:47:57;16.10;99.90
17489;DHT22;8861;52.644;4.734;2022-10-03T08:53:50;16.30;99.90
17489;DHT22;8861;52.644;4.734;2022-10-03T08:56:26;16.30;99.90
17489;DHT22;8861;52.644;4.734;2022-10-03T08:59:24;16.20;99.90
17489;DHT22;8861;52.644;4.734;2022-10-03T09:05:33;16.10;99.90
17489;DHT22;8861;52.644;4.734;2022-10-03T09:14:30;16.20;99.90
17489;DHT22;8861;52.644;4.734;2022-10-03T09:17:24;16.30;99.90
17489;DHT22;8861;52.644;4.734;2022-10-03T09:20:25;16.30;99.90
17489;DHT22;8861;52.644;4.734;2022-10-03T09:23:19;16.30;99.90
17489;DHT22;8861;52.644;4.734;2022-10-03T09:29:31;16.30;99.90
17489;DHT22;8861;52.644;4.734;2022-10-03T09:35:31;16.40;99.90
17489;DHT22;8861;52.644;4.734;2022-10-03T09:38:38;16.40;99.90
17489;DHT22;8861;52.644;4.734;2022-10-03T09:41:30;16.30;99.90
17489;DHT22;8861;52.644;4.734;2022-10-03T09:44:33;16.30;99.90
17489;DHT22;8861;52.644;4.734;2022-10-03T09:50:26;16.30;99.90
17489;DHT22;8861;52.644;4.734;2022-10-03T09:53:23;16.40;99.90
17489;DHT22;8861;52.644;4.734;2022-10-03T09:56:19;16.50;99.90
17489;DHT22;8861;52.644;4.734;2022-10-03T09:59:06;16.60;99.90
17489;DHT22;8861;52.644;4.734;2022-10-03T10:01:41;16.80;99.90
17489;DHT22;8861;52.644;4.734;2022-10-03T10:04:38;16.90;99.90
17489;DHT22;8861;52.644;4.734;2022-10-03T10:07:32;17.00;99.90
17489;DHT22;8861;52.644;4.734;2022-10-03T10:10:30;17.00;99.90
17489;DHT22;8861;52.644;4.734;2022-10-03T10:13:24;17.10;99.90
17489;DHT22;8861;52.644;4.734;2022-10-03T10:16:21;17.30;99.90
17489;DHT22;8861;52.644;4.734;2022-10-03T10:22:16;17.60;99.90
17489;DHT22;8861;52.644;4.734;2022-10-03T10:25:18;17.70;99.90
17489;DHT22;8861;52.644;4.734;2022-10-03T10:37:58;17.90;99.90
17489;DHT22;8861;52.644;4.734;2022-10-03T10:47:11;18.20;99.90
17489;DHT22;8861;52.644;4.734;2022-10-03T10:50:18;18.30;99.90
17489;DHT22;8861;52.644;4.734;2022-10-03T10:56:27;18.10;99.90
17489;DHT22;8861;52.644;4.734;2022-10-03T10:59:30;18.00;99.90
17489;DHT22;8861;52.644;4.734;2022-10-03T11:02:38;18.00;99.90
17489;DHT22;8861;52.644;4.734;2022-10-03T11:05:39;18.00;99.90
17489;DHT22;8861;52.644;4.734;2022-10-03T11:08:38;18.00;99.90
17489;DHT22;8861;52.644;4.734;2022-10-03T11:17:50;18.90;99.90
17489;DHT22;8861;52.644;4.734;2022-10-03T11:26:56;19.40;99.90
17489;DHT22;8861;52.644;4.734;2022-10-03T11:30:16;19.40;99.90
17489;DHT22;8861;52.644;4.734;2022-10-03T11:36:09;19.10;99.90
17489;DHT22;8861;52.644;4.734;2022-10-03T11:38:43;19.10;99.90
17489;DHT22;8861;52.644;4.734;2022-10-03T11:41:23;19.10;99.90
17489;DHT22;8861;52.644;4.734;2022-10-03T11:44:15;19.10;99.90
17489;DHT22;8861;52.644;4.734;2022-10-03T11:46:54;19.20;99.90
17489;DHT22;8861;52.644;4.734;2022-10-03T11:49:47;19.20;99.90
17489;DHT22;8861;52.644;4.734;2022-10-03T11:52:27;19.30;99.90
17489;DHT22;8861;52.644;4.734;2022-10-03T11:55:08;19.40;99.90
17489;DHT22;8861;52.644;4.734;2022-10-03T11:57:51;19.30;99.90
17489;DHT22;8861;52.644;4.734;2022-10-03T12:00:24;19.30;99.90
17489;DHT22;8861;52.644;4.734;2022-10-03T12:03:17;19.30;99.90
17489;DHT22;8861;52.644;4.734;2022-10-03T12:05:54;19.30;99.90
17489;DHT22;8861;52.644;4.734;2022-10-03T12:08:54;19.50;99.90
17489;DHT22;8861;52.644;4.734;2022-10-03T12:11:31;19.50;99.90
17489;DHT22;8861;52.644;4.734;2022-10-03T12:14:23;19.50;99.90
17489;DHT22;8861;52.644;4.734;2022-10-03T12:17:00;19.40;99.90
17489;DHT22;8861;52.644;4.734;2022-10-03T12:19:34;19.40;99.90
17489;DHT22;8861;52.644;4.734;2022-10-03T12:22:09;19.30;99.90
17489;DHT22;8861;52.644;4.734;2022-10-03T12:24:41;19.20;99.90
17489;DHT22;8861;52.644;4.734;2022-10-03T12:27:16;19.10;99.90
17489;DHT22;8861;52.644;4.734;2022-10-03T12:29:54;19.00;99.90
17489;DHT22;8861;52.644;4.734;2022-10-03T12:32:38;19.00;99.90
17489;DHT22;8861;52.644;4.734;2022-10-03T12:35:20;19.10;99.90
17489;DHT22;8861;52.644;4.734;2022-10-03T12:38:01;19.10;99.90
17489;DHT22;8861;52.644;4.734;2022-10-03T12:40:37;19.10;99.90
17489;DHT22;8861;52.644;4.734;2022-10-03T12:43:18;19.20;99.90
17489;DHT22;8861;52.644;4.734;2022-10-03T12:45:53;19.30;99.90
17489;DHT22;8861;52.644;4.734;2022-10-03T12:48:37;19.40;99.90
17489;DHT22;8861;52.644;4.734;2022-10-03T12:51:16;19.60;99.90
17489;DHT22;8861;52.644;4.734;2022-10-03T12:53:54;19.80;99.90
17489;DHT22;8861;52.644;4.734;2022-10-03T12:56:33;19.90;99.90
17489;DHT22;8861;52.644;4.734;2022-10-03T12:59:14;19.90;99.90
17489;DHT22;8861;52.644;4.734;2022-10-03T13:04:40;19.50;99.90
17489;DHT22;8861;52.644;4.734;2022-10-03T13:07:22;19.40;99.90
17489;DHT22;8861;52.644;4.734;2022-10-03T13:10:13;19.20;99.90
17489;DHT22;8861;52.644;4.734;2022-10-03T13:12:47;19.20;99.90
17489;DHT22;8861;52.644;4.734;2022-10-03T13:15:40;19.10;99.90
17489;DHT22;8861;52.644;4.734;2022-10-03T13:21:07;19.10;99.90
17489;DHT22;8861;52.644;4.734;2022-10-03T13:23:42;19.00;99.90
17489;DHT22;8861;52.644;4.734;2022-10-03T13:26:15;18.90;99.90
17489;DHT22;8861;52.644;4.734;2022-10-03T13:29:18;18.90;99.90
17489;DHT22;8861;52.644;4.734;2022-10-03T13:32:05;18.90;99.90
17489;DHT22;8861;52.644;4.734;2022-10-03T13:34:35;18.80;99.90
17489;DHT22;8861;52.644;4.734;2022-10-03T13:37:07;18.80;99.90
17489;DHT22;8861;52.644;4.734;2022-10-03T13:39:45;18.90;99.90
17489;DHT22;8861;52.644;4.734;2022-10-03T13:42:17;18.90;99.90
17489;DHT22;8861;52.644;4.734;2022-10-03T13:44:52;18.90;99.90
17489;DHT22;8861;52.644;4.734;2022-10-03T13:47:28;18.90;99.90
17489;DHT22;8861;52.644;4.734;2022-10-03T13:49:58;19.00;99.90
17489;DHT22;8861;52.644;4.734;2022-10-03T13:52:35;19.00;99.90
17489;DHT22;8861;52.644;4.734;2022-10-03T13:58:22;18.90;99.90
17489;DHT22;8861;52.644;4.734;2022-10-03T14:01:17;18.90;99.90
17489;DHT22;8861;52.644;4.734;2022-10-03T14:03:57;19.00;99.90
17489;DHT22;8861;52.644;4.734;2022-10-03T14:06:32;19.10;99.90
17489;DHT22;8861;52.644;4.734;2022-10-03T14:09:21;19.30;99.90
17489;DHT22;8861;52.644;4.734;2022-10-03T14:11:57;19.30;99.90
17489;DHT22;8861;52.644;4.734;2022-10-03T14:14:51;19.30;99.90
17489;DHT22;8861;52.644;4.734;2022-10-03T14:17:29;19.30;99.90
17489;DHT22;8861;52.644;4.734;2022-10-03T14:20:12;19.20;99.90
17489;DHT22;8861;52.644;4.734;2022-10-03T14:23:01;19.20;99.90
17489;DHT22;8861;52.644;4.734;2022-10-03T14:25:35;19.20;99.90
17489;DHT22;8861;52.644;4.734;2022-10-03T14:28:12;19.20;99.90
17489;DHT22;8861;52.644;4.734;2022-10-03T14:30:49;19.30;99.90
17489;DHT22;8861;52.644;4.734;2022-10-03T14:33:24;19.30;99.90
17489;DHT22;8861;52.644;4.734;2022-10-03T14:36:02;19.40;99.90
17489;DHT22;8861;52.644;4.734;2022-10-03T14:38:53;19.50;99.90
17489;DHT22;8861;52.644;4.734;2022-10-03T14:41:32;19.50;99.90
17489;DHT22;8861;52.644;4.734;2022-10-03T14:44:04;19.50;99.90
17489;DHT22;8861;52.644;4.734;2022-10-03T14:46:37;19.50;99.90
17489;DHT22;8861;52.644;4.734;2022-10-03T14:49:15;19.50;99.90
17489;DHT22;8861;52.644;4.734;2022-10-03T14:51:46;19.50;99.90
17489;DHT22;8861;52.644;4.734;2022-10-03T14:54:19;19.40;99.90
17489;DHT22;8861;52.644;4.734;2022-10-03T14:56:48;19.40;99.90
17489;DHT22;8861;52.644;4.734;2022-10-03T14:59:19;19.30;99.90
17489;DHT22;8861;52.644;4.734;2022-10-03T15:01:48;19.30;99.90
17489;DHT22;8861;52.644;4.734;2022-10-03T15:04:31;19.40;99.90
17489;DHT22;8861;52.644;4.734;2022-10-03T15:07:00;19.30;99.90
17489;DHT22;8861;52.644;4.734;2022-10-03T15:09:31;19.20;99.90
17489;DHT22;8861;52.644;4.734;2022-10-03T15:12:07;19.10;99.90
17489;DHT22;8861;52.644;4.734;2022-10-03T15:14:40;19.00;99.90
17489;DHT22;8861;52.644;4.734;2022-10-03T15:17:16;18.90;99.90
17489;DHT22;8861;52.644;4.734;2022-10-03T15:19:50;18.80;99.90
17489;DHT22;8861;52.644;4.734;2022-10-03T15:22:30;18.60;99.90
17489;DHT22;8861;52.644;4.734;2022-10-03T15:25:02;18.50;99.90
17489;DHT22;8861;52.644;4.734;2022-10-03T15:27:31;18.30;99.90
17489;DHT22;8861;52.644;4.734;2022-10-03T15:30:02;18.30;99.90
17489;DHT22;8861;52.644;4.734;2022-10-03T15:32:34;18.20;99.90
17489;DHT22;8861;52.644;4.734;2022-10-03T15:35:05;18.20;99.90
17489;DHT22;8861;52.644;4.734;2022-10-03T15:37:37;18.20;99.90
17489;DHT22;8861;52.644;4.734;2022-10-03T15:40:07;18.20;99.90
17489;DHT22;8861;52.644;4.734;2022-10-03T15:42:47;18.10;99.90
17489;DHT22;8861;52.644;4.734;2022-10-03T15:45:23;18.00;99.90
17489;DHT22;8861;52.644;4.734;2022-10-03T15:47:54;17.90;99.90
17489;DHT22;8861;52.644;4.734;2022-10-03T15:50:25;17.80;99.90
17489;DHT22;8861;52.644;4.734;2022-10-03T15:52:56;17.70;99.90
17489;DHT22;8861;52.644;4.734;2022-10-03T15:55:29;17.60;99.90
17489;DHT22;8861;52.644;4.734;2022-10-03T15:58:03;17.50;99.90
17489;DHT22;8861;52.644;4.734;2022-10-03T16:00:34;17.50;99.90
17489;DHT22;8861;52.644;4.734;2022-10-03T16:03:11;17.40;99.90
17489;DHT22;8861;52.644;4.734;2022-10-03T16:05:48;17.30;99.90
17489;DHT22;8861;52.644;4.734;2022-10-03T16:08:19;17.20;99.90
17489;DHT22;8861;52.644;4.734;2022-10-03T16:10:52;17.10;99.90
17489;DHT22;8861;52.644;4.734;2022-10-03T16:13:30;17.00;99.90
17489;DHT22;8861;52.644;4.734;2022-10-03T16:16:18;17.00;99.90
17489;DHT22;8861;52.644;4.734;2022-10-03T16:19:18;16.90;99.90
17489;DHT22;8861;52.644;4.734;2022-10-03T16:21:49;16.90;99.90
17489;DHT22;8861;52.644;4.734;2022-10-03T16:24:33;16.80;99.90
17489;DHT22;8861;52.644;4.734;2022-10-03T16:27:09;16.80;99.90
17489;DHT22;8861;52.644;4.734;2022-10-03T16:29:42;16.70;99.90
17489;DHT22;8861;52.644;4.734;2022-10-03T16:32:16;16.70;99.90
17489;DHT22;8861;52.644;4.734;2022-10-03T16:34:45;16.70;99.90
17489;DHT22;8861;52.644;4.734;2022-10-03T16:37:17;16.70;99.90
17489;DHT22;8861;52.644;4.734;2022-10-03T16:39:52;16.60;99.90
17489;DHT22;8861;52.644;4.734;2022-10-03T16:42:23;16.60;99.90
17489;DHT22;8861;52.644;4.734;2022-10-03T16:44:53;16.50;99.90
17489;DHT22;8861;52.644;4.734;2022-10-03T16:47:34;16.50;99.90
17489;DHT22;8861;52.644;4.734;2022-10-03T16:50:02;16.30;99.90
17489;DHT22;8861;52.644;4.734;2022-10-03T16:52:50;16.20;99.90
17489;DHT22;8861;52.644;4.734;2022-10-03T16:55:28;16.10;99.90
17489;DHT22;8861;52.644;4.734;2022-10-03T16:58:02;16.00;99.90
17489;DHT22;8861;52.644;4.734;2022-10-03T17:00:40;15.90;99.90
17489;DHT22;8861;52.644;4.734;2022-10-03T17:03:15;15.90;99.90
17489;DHT22;8861;52.644;4.734;2022-10-03T17:05:45;15.80;99.90
17489;DHT22;8861;52.644;4.734;2022-10-03T17:08:17;15.60;99.90
17489;DHT22;8861;52.644;4.734;2022-10-03T17:10:51;15.60;99.90
17489;DHT22;8861;52.644;4.734;2022-10-03T17:13:22;15.50;99.90
17489;DHT22;8861;52.644;4.734;2022-10-03T17:15:53;15.40;99.90
17489;DHT22;8861;52.644;4.734;2022-10-03T17:18:26;15.40;99.90
17489;DHT22;8861;52.644;4.734;2022-10-03T17:20:55;15.30;99.90
17489;DHT22;8861;52.644;4.734;2022-10-03T17:23:32;15.30;99.90
17489;DHT22;8861;52.644;4.734;2022-10-03T17:26:05;15.30;99.90
17489;DHT22;8861;52.644;4.734;2022-10-03T17:28:41;15.30;99.90
17489;DHT22;8861;52.644;4.734;2022-10-03T17:31:28;15.20;99.90
17489;DHT22;8861;52.644;4.734;2022-10-03T17:34:08;15.20;99.90
17489;DHT22;8861;52.644;4.734;2022-10-03T17:37:00;15.10;99.90
17489;DHT22;8861;52.644;4.734;2022-10-03T17:39:40;15.10;99.90
17489;DHT22;8861;52.644;4.734;2022-10-03T17:42:27;15.00;99.90
17489;DHT22;8861;52.644;4.734;2022-10-03T17:45:01;14.90;99.90
17489;DHT22;8861;52.644;4.734;2022-10-03T17:47:37;14.90;99.90
17489;DHT22;8861;52.644;4.734;2022-10-03T17:50:13;14.90;99.90
17489;DHT22;8861;52.644;4.734;2022-10-03T17:52:43;14.80;99.90
17489;DHT22;8861;52.644;4.734;2022-10-03T17:55:17;14.80;99.90
17489;DHT22;8861;52.644;4.734;2022-10-03T17:57:48;14.80;99.90
17489;DHT22;8861;52.644;4.734;2022-10-03T18:00:19;14.80;99.90
17489;DHT22;8861;52.644;4.734;2022-10-03T18:02:55;14.80;99.90
17489;DHT22;8861;52.644;4.734;2022-10-03T18:05:26;14.80;99.90
17489;DHT22;8861;52.644;4.734;2022-10-03T18:07:55;14.80;99.90
17489;DHT22;8861;52.644;4.734;2022-10-03T18:10:27;14.80;99.90
17489;DHT22;8861;52.644;4.734;2022-10-03T18:12:58;14.80;99.90
17489;DHT22;8861;52.644;4.734;2022-10-03T18:19:02;14.80;99.90
17489;DHT22;8861;52.644;4.734;2022-10-03T18:21:54;14.80;99.90
17489;DHT22;8861;52.644;4.734;2022-10-03T18:24:42;14.80;99.90
17489;DHT22;8861;52.644;4.734;2022-10-03T18:30:20;14.80;99.90
17489;DHT22;8861;52.644;4.734;2022-10-03T18:32:49;14.80;99.90
17489;DHT22;8861;52.644;4.734;2022-10-03T18:35:20;14.80;99.90
17489;DHT22;8861;52.644;4.734;2022-10-03T18:38:04;14.80;99.90
17489;DHT22;8861;52.644;4.734;2022-10-03T18:40:33;14.80;99.90
17489;DHT22;8861;52.644;4.734;2022-10-03T18:43:03;14.80;99.90
17489;DHT22;8861;52.644;4.734;2022-10-03T18:45:42;14.80;99.90
17489;DHT22;8861;52.644;4.734;2022-10-03T18:48:11;14.80;99.90
17489;DHT22;8861;52.644;4.734;2022-10-03T18:50:53;14.80;99.90
17489;DHT22;8861;52.644;4.734;2022-10-03T18:53:31;14.80;99.90
17489;DHT22;8861;52.644;4.734;2022-10-03T18:56:02;14.80;99.90
17489;DHT22;8861;52.644;4.734;2022-10-03T18:58:32;14.80;99.90
17489;DHT22;8861;52.644;4.734;2022-10-03T19:01:05;14.80;99.90
17489;DHT22;8861;52.644;4.734;2022-10-03T19:03:35;14.70;99.90
17489;DHT22;8861;52.644;4.734;2022-10-03T19:06:07;14.70;99.90
17489;DHT22;8861;52.644;4.734;2022-10-03T19:08:45;14.70;99.90
17489;DHT22;8861;52.644;4.734;2022-10-03T19:11:18;14.70;99.90
17489;DHT22;8861;52.644;4.734;2022-10-03T19:13:57;14.60;99.90
17489;DHT22;8861;52.644;4.734;2022-10-03T19:16:56;14.60;99.90
17489;DHT22;8861;52.644;4.734;2022-10-03T19:19:30;14.60;99.90
17489;DHT22;8861;52.644;4.734;2022-10-03T19:22:01;14.60;99.90
17489;DHT22;8861;52.644;4.734;2022-10-03T19:24:30;14.60;99.90
17489;DHT22;8861;52.644;4.734;2022-10-03T19:27:02;14.60;99.90
17489;DHT22;8861;52.644;4.734;2022-10-03T19:29:32;14.60;99.90
17489;DHT22;8861;52.644;4.734;2022-10-03T19:32:04;14.50;99.90
17489;DHT22;8861;52.644;4.734;2022-10-03T19:34:35;14.50;99.90
17489;DHT22;8861;52.644;4.734;2022-10-03T19:37:06;14.50;99.90
17489;DHT22;8861;52.644;4.734;2022-10-03T19:39:37;14.50;99.90
17489;DHT22;8861;52.644;4.734;2022-10-03T19:42:22;14.50;99.90
17489;DHT22;8861;52.644;4.734;2022-10-03T19:44:54;14.50;99.90
17489;DHT22;8861;52.644;4.734;2022-10-03T19:47:27;14.60;99.90
17489;DHT22;8861;52.644;4.734;2022-10-03T19:50:03;14.60;99.90
17489;DHT22;8861;52.644;4.734;2022-10-03T19:52:34;14.60;99.90
17489;DHT22;8861;52.644;4.734;2022-10-03T19:55:11;14.60;99.90